createdAt,value
2023-02-04T00:00:34.745Z,100.00
2023-02-04T00:03:01.335Z,100.00
2023-02-04T00:05:27.969Z,100.00
2023-02-04T00:07:54.514Z,100.00
2023-02-04T00:10:21.198Z,100.00
2023-02-04T00:12:47.819Z,100.00
2023-02-04T00:15:14.435Z,100.00
2023-02-04T00:17:41.025Z,100.00
2023-02-04T00:20:07.850Z,100.00
2023-02-04T00:22:34.354Z,100.00
2023-02-04T00:27:38.899Z,100.00
2023-02-04T00:30:06.776Z,100.00
2023-02-04T00:32:33.720Z,100.00
2023-02-04T00:37:35.951Z,100.00
2023-02-04T00:42:40.560Z,100.00
2023-02-04T00:45:07.465Z,100.00
2023-02-04T00:47:34.048Z,100.00
2023-02-04T00:50:00.595Z,100.00
2023-02-04T00:52:27.171Z,100.00
2023-02-04T00:54:53.732Z,100.00
2023-02-04T00:57:20.292Z,100.00
2023-02-04T00:59:46.840Z,100.00
2023-02-04T01:02:13.402Z,100.00
2023-02-04T01:04:39.953Z,100.00
2023-02-04T01:07:06.558Z,100.00
2023-02-04T01:09:34.126Z,100.00
2023-02-04T01:12:00.702Z,100.00
2023-02-04T01:14:27.466Z,100.00
2023-02-04T01:16:54.057Z,100.00
2023-02-04T01:19:21.205Z,100.00
2023-02-04T01:21:47.981Z,100.00
2023-02-04T01:24:14.529Z,100.00
2023-02-04T01:26:41.033Z,100.00
2023-02-04T01:31:38.926Z,100.00
2023-02-04T01:34:05.567Z,100.00
2023-02-04T01:36:32.110Z,99.83
2023-02-04T01:39:01.137Z,100.00
2023-02-04T01:41:28.313Z,100.00
2023-02-04T01:46:34.818Z,100.00
2023-02-04T01:49:01.549Z,100.00
2023-02-04T01:54:15.009Z,100.00
2023-02-04T01:56:45.526Z,100.00
2023-02-04T01:59:14.316Z,100.00
2023-02-04T02:01:43.655Z,100.00
2023-02-04T02:04:11.849Z,100.00
2023-02-04T02:06:41.464Z,100.00
2023-02-04T02:09:08.371Z,100.00
2023-02-04T02:11:35.016Z,100.00
2023-02-04T02:14:01.573Z,100.00
2023-02-04T02:16:28.119Z,100.00
2023-02-04T02:18:54.799Z,100.00
2023-02-04T02:21:39.514Z,100.00
2023-02-04T02:24:26.414Z,100.00
2023-02-04T02:26:54.938Z,100.00
2023-02-04T02:31:57.588Z,100.00
2023-02-04T02:34:26.188Z,100.00
2023-02-04T02:36:53.466Z,100.00
2023-02-04T02:39:20.543Z,100.00
2023-02-04T02:41:47.240Z,100.00
2023-02-04T02:44:14.883Z,100.00
2023-02-04T02:46:41.536Z,100.00
2023-02-04T02:49:15.824Z,100.00
2023-02-04T02:51:42.993Z,100.00
2023-02-04T02:54:36.077Z,99.89
2023-02-04T02:57:02.631Z,100.00
2023-02-04T02:59:29.342Z,100.00
2023-02-04T03:02:00.396Z,100.00
2023-02-04T03:04:30.155Z,100.00
2023-02-04T03:06:56.960Z,100.00
2023-02-04T03:09:25.855Z,100.00
2023-02-04T03:11:52.582Z,100.00
2023-02-04T03:14:19.820Z,100.00
2023-02-04T03:16:47.434Z,100.00
2023-02-04T03:19:14.285Z,99.48
2023-02-04T03:21:41.614Z,98.49
2023-02-04T03:24:08.305Z,98.15
2023-02-04T03:26:35.215Z,97.29
2023-02-04T03:29:01.948Z,97.92
2023-02-04T03:31:28.666Z,97.10
2023-02-04T03:33:55.228Z,96.98
2023-02-04T03:36:22.033Z,96.38
2023-02-04T03:38:48.623Z,96.27
2023-02-04T03:41:15.153Z,94.89
2023-02-04T03:43:41.684Z,94.17
2023-02-04T03:46:08.304Z,93.69
2023-02-04T03:48:34.934Z,94.37
2023-02-04T03:51:01.556Z,93.64
2023-02-04T03:53:28.139Z,93.94
2023-02-04T03:55:54.685Z,94.72
2023-02-04T03:58:22.381Z,94.49
2023-02-04T04:00:49.489Z,95.38
2023-02-04T04:05:47.626Z,95.87
2023-02-04T04:08:14.167Z,96.13
2023-02-04T04:10:42.033Z,96.14
2023-02-04T04:13:08.649Z,96.42
2023-02-04T04:15:35.140Z,97.53
2023-02-04T04:18:02.801Z,96.91
2023-02-04T04:20:29.511Z,96.62
2023-02-04T04:22:56.276Z,96.41
2023-02-04T04:25:22.857Z,95.89
2023-02-04T04:27:49.400Z,96.15
2023-02-04T04:30:16.040Z,97.30
2023-02-04T04:32:42.570Z,97.94
2023-02-04T04:35:09.191Z,97.30
2023-02-04T04:37:35.732Z,97.67
2023-02-04T04:40:02.867Z,98.72
2023-02-04T04:42:29.432Z,99.05
2023-02-04T04:44:56.029Z,98.82
2023-02-04T04:47:22.527Z,99.47
2023-02-04T04:49:49.063Z,100.00
2023-02-04T04:52:15.583Z,100.00
2023-02-04T04:54:42.082Z,100.00
2023-02-04T04:57:08.617Z,100.00
2023-02-04T05:02:06.422Z,100.00
2023-02-04T05:04:33.021Z,100.00
2023-02-04T05:06:59.668Z,100.00
2023-02-04T05:09:26.352Z,100.00
2023-02-04T05:11:52.918Z,100.00
2023-02-04T05:16:56.520Z,100.00
2023-02-04T05:19:23.036Z,100.00
2023-02-04T05:21:49.625Z,100.00
2023-02-04T05:24:16.164Z,100.00
2023-02-04T05:26:42.740Z,100.00
2023-02-04T05:29:10.827Z,100.00
2023-02-04T05:31:37.488Z,100.00
2023-02-04T05:34:04.123Z,100.00
2023-02-04T05:36:30.754Z,100.00
2023-02-04T05:38:57.286Z,100.00
2023-02-04T05:41:23.880Z,100.00
2023-02-04T05:43:50.380Z,100.00
2023-02-04T05:46:16.875Z,100.00
2023-02-04T05:48:43.397Z,100.00
2023-02-04T05:51:09.904Z,100.00
2023-02-04T05:53:36.421Z,100.00
2023-02-04T05:56:03.043Z,100.00
2023-02-04T05:58:33.510Z,100.00
2023-02-04T06:01:01.717Z,100.00
2023-02-04T06:03:29.637Z,100.00
2023-02-04T06:05:56.938Z,100.00
2023-02-04T06:08:23.485Z,100.00
2023-02-04T06:10:50.022Z,100.00
2023-02-04T06:13:16.908Z,100.00
2023-02-04T06:15:43.501Z,100.00
2023-02-04T06:18:10.150Z,100.00
2023-02-04T06:20:36.683Z,100.00
2023-02-04T06:23:03.232Z,100.00
2023-02-04T06:25:29.761Z,100.00
2023-02-04T06:27:56.436Z,100.00
2023-02-04T06:30:22.968Z,100.00
2023-02-04T06:32:49.494Z,100.00
2023-02-04T06:35:16.736Z,100.00
2023-02-04T06:37:43.691Z,100.00
2023-02-04T06:40:11.478Z,100.00
2023-02-04T06:42:38.034Z,100.00
2023-02-04T06:45:05.295Z,100.00
2023-02-04T06:47:31.946Z,100.00
2023-02-04T06:49:58.472Z,100.00
2023-02-04T06:52:25.051Z,100.00
2023-02-04T06:54:51.591Z,100.00
2023-02-04T06:57:18.146Z,100.00
2023-02-04T06:59:44.716Z,100.00
2023-02-04T07:02:12.453Z,100.00
2023-02-04T07:07:11.799Z,100.00
2023-02-04T07:09:40.657Z,100.00
2023-02-04T07:12:07.562Z,100.00
2023-02-04T07:14:37.259Z,100.00
2023-02-04T07:17:04.040Z,100.00
2023-02-04T07:19:30.557Z,100.00
2023-02-04T07:21:57.328Z,100.00
2023-02-04T07:24:24.120Z,100.00
2023-02-04T07:26:50.835Z,100.00
2023-02-04T07:29:25.094Z,100.00
2023-02-04T07:31:52.999Z,100.00
2023-02-04T07:34:20.352Z,100.00
2023-02-04T07:36:47.017Z,100.00
2023-02-04T07:39:13.616Z,100.00
2023-02-04T07:41:41.069Z,100.00
2023-02-04T07:44:07.680Z,100.00
2023-02-04T07:46:34.302Z,100.00
2023-02-04T07:49:00.967Z,100.00
2023-02-04T07:51:28.021Z,100.00
2023-02-04T07:53:55.934Z,100.00
2023-02-04T07:58:54.114Z,100.00
2023-02-04T08:01:20.693Z,100.00
2023-02-04T08:03:47.281Z,100.00
2023-02-04T08:06:13.876Z,100.00
2023-02-04T08:08:40.420Z,100.00
2023-02-04T08:11:07.023Z,100.00
2023-02-04T08:13:33.609Z,100.00
2023-02-04T08:16:00.206Z,100.00
2023-02-04T08:18:26.808Z,100.00
2023-02-04T08:20:53.522Z,100.00
2023-02-04T08:23:20.410Z,100.00
2023-02-04T08:28:18.487Z,100.00
2023-02-04T08:30:45.134Z,100.00
2023-02-04T08:33:11.765Z,100.00
2023-02-04T08:35:38.276Z,100.00
2023-02-04T08:38:04.810Z,100.00
2023-02-04T08:40:31.909Z,100.00
2023-02-04T08:42:58.757Z,100.00
2023-02-04T08:45:25.300Z,100.00
2023-02-04T08:47:51.806Z,100.00
2023-02-04T08:50:18.486Z,100.00
2023-02-04T08:52:45.012Z,99.95
2023-02-04T08:55:11.602Z,99.72
2023-02-04T08:57:38.173Z,98.47
2023-02-04T09:00:05.004Z,98.86
2023-02-04T09:05:10.081Z,95.05
2023-02-04T09:07:36.616Z,95.25
2023-02-04T09:10:03.444Z,94.11
2023-02-04T09:12:29.984Z,94.49
2023-02-04T09:14:56.505Z,93.13
2023-02-04T09:17:23.113Z,92.81
2023-02-04T09:19:49.628Z,90.72
2023-02-04T09:22:16.153Z,90.50
2023-02-04T09:24:42.648Z,89.20
2023-02-04T09:27:09.274Z,88.43
2023-02-04T09:32:12.941Z,84.96
2023-02-04T09:34:39.639Z,83.87
2023-02-04T09:39:44.675Z,82.27
2023-02-04T09:42:15.128Z,80.07
2023-02-04T09:44:42.061Z,76.58
2023-02-04T09:47:11.715Z,77.96
2023-02-04T09:49:38.272Z,75.00
2023-02-04T09:54:38.466Z,68.59
2023-02-04T09:57:15.077Z,68.21
2023-02-04T09:59:43.493Z,67.63
2023-02-04T10:02:26.346Z,69.75
2023-02-04T10:04:57.652Z,68.60
2023-02-04T10:07:26.595Z,83.60
2023-02-04T10:09:54.453Z,67.52
2023-02-04T10:12:21.729Z,70.17
2023-02-04T10:17:22.947Z,74.75
2023-02-04T10:19:49.757Z,76.61
2023-02-04T10:22:19.929Z,75.19
2023-02-04T10:24:46.813Z,75.30
2023-02-04T10:27:16.364Z,75.22
2023-02-04T10:29:43.631Z,74.92
2023-02-04T10:32:26.989Z,76.84
2023-02-04T10:34:58.880Z,76.27
2023-02-04T10:42:31.021Z,76.64
2023-02-04T10:44:58.526Z,79.10
2023-02-04T10:47:29.064Z,76.67
2023-02-04T10:50:15.423Z,75.67
2023-02-04T10:52:45.649Z,75.15
2023-02-04T10:58:02.078Z,74.51
2023-02-04T11:00:30.022Z,74.67
2023-02-04T11:05:36.144Z,73.21
2023-02-04T11:08:18.401Z,71.64
2023-02-04T11:10:45.277Z,72.87
2023-02-04T11:13:22.624Z,70.97
2023-02-04T11:15:55.207Z,73.13
2023-02-04T11:18:21.953Z,71.19
2023-02-04T11:20:55.132Z,71.01
2023-02-04T11:23:27.640Z,72.19
2023-02-04T11:26:07.545Z,73.24
2023-02-04T11:28:46.262Z,73.87
2023-02-04T11:31:19.998Z,73.36
2023-02-04T11:33:48.093Z,72.64
2023-02-04T11:38:49.971Z,72.51
2023-02-04T11:41:31.795Z,71.34
2023-02-04T11:43:58.508Z,72.49
2023-02-04T11:46:28.397Z,71.26
2023-02-04T11:48:57.721Z,72.61
2023-02-04T11:51:30.485Z,71.08
2023-02-04T12:01:50.133Z,71.96
2023-02-04T12:04:24.912Z,72.42
2023-02-04T12:07:03.545Z,72.37
2023-02-04T12:09:31.530Z,71.63
2023-02-04T12:12:03.624Z,68.98
2023-02-04T12:17:19.504Z,69.99
2023-02-04T12:19:46.227Z,70.46
2023-02-04T12:22:14.766Z,70.76
2023-02-04T12:24:41.832Z,68.59
2023-02-04T12:27:08.556Z,70.22
2023-02-04T12:29:35.068Z,69.55
2023-02-04T12:32:01.695Z,70.43
2023-02-04T12:34:29.037Z,70.52
2023-02-04T12:36:55.660Z,71.41
2023-02-04T12:39:22.167Z,70.33
2023-02-04T12:41:48.737Z,70.17
2023-02-04T12:44:17.451Z,70.70
2023-02-04T12:49:15.398Z,71.08
2023-02-04T12:51:42.021Z,72.16
2023-02-04T12:54:08.541Z,72.90
2023-02-04T12:56:35.077Z,72.48
2023-02-04T12:59:01.685Z,71.57
2023-02-04T13:01:28.244Z,70.90
2023-02-04T13:03:54.853Z,71.68
2023-02-04T13:06:21.490Z,72.07
2023-02-04T13:11:25.391Z,73.30
2023-02-04T13:13:51.886Z,71.62
2023-02-04T13:16:19.520Z,71.84
2023-02-04T13:18:46.096Z,71.46
2023-02-04T13:21:12.628Z,71.17
2023-02-04T13:23:39.165Z,69.87
2023-02-04T13:28:39.772Z,68.35
2023-02-04T13:31:06.621Z,67.85
2023-02-04T13:33:33.381Z,68.09
2023-02-04T13:35:59.955Z,67.34
2023-02-04T13:38:26.639Z,68.40
2023-02-04T13:40:53.138Z,67.75
2023-02-04T13:43:19.696Z,66.66
2023-02-04T13:45:48.858Z,65.61
2023-02-04T13:48:16.520Z,66.95
2023-02-04T13:50:43.096Z,66.43
2023-02-04T13:53:09.758Z,65.28
2023-02-04T13:55:36.384Z,65.95
2023-02-04T13:58:02.952Z,66.90
2023-02-04T14:00:29.487Z,66.56
2023-02-04T14:02:56.750Z,65.99
2023-02-04T14:05:23.363Z,64.89
2023-02-04T14:07:49.952Z,63.86
2023-02-04T14:10:19.567Z,64.28
2023-02-04T14:12:46.170Z,65.78
2023-02-04T14:15:12.775Z,68.10
2023-02-04T14:17:39.393Z,64.08
2023-02-04T14:20:06.284Z,64.05
2023-02-04T14:22:32.813Z,61.47
2023-02-04T14:24:59.344Z,62.48
2023-02-04T14:27:25.948Z,62.01
2023-02-04T14:29:52.494Z,61.41
2023-02-04T14:32:20.997Z,61.20
2023-02-04T14:34:47.589Z,60.05
2023-02-04T14:37:14.102Z,60.76
2023-02-04T14:39:40.643Z,62.13
2023-02-04T14:44:45.058Z,62.32
2023-02-04T14:47:11.558Z,62.21
2023-02-04T14:49:38.213Z,62.13
2023-02-04T14:52:04.950Z,63.61
2023-02-04T14:54:31.487Z,61.48
2023-02-04T14:56:58.030Z,62.32
2023-02-04T14:59:24.611Z,61.15
2023-02-04T15:01:51.154Z,62.59
2023-02-04T15:04:18.677Z,72.87
2023-02-04T15:06:46.192Z,62.22
2023-02-04T15:09:13.166Z,67.89
2023-02-04T15:11:40.088Z,59.14
2023-02-04T15:14:06.656Z,60.73
2023-02-04T15:16:33.273Z,61.13
2023-02-04T15:18:59.802Z,62.41
2023-02-04T15:21:27.449Z,61.99
2023-02-04T15:26:25.337Z,64.99
2023-02-04T15:28:52.002Z,65.50
2023-02-04T15:31:18.628Z,64.14
2023-02-04T15:33:45.232Z,65.16
2023-02-04T15:36:11.784Z,67.46
2023-02-04T15:38:38.299Z,66.74
2023-02-04T15:41:05.364Z,66.82
2023-02-04T15:43:31.978Z,66.78
2023-02-04T15:45:58.627Z,68.83
2023-02-04T15:48:25.324Z,69.37
2023-02-04T15:50:51.856Z,68.03
2023-02-04T15:53:18.521Z,69.94
2023-02-04T15:55:45.256Z,71.23
2023-02-04T15:58:12.083Z,70.92
2023-02-04T16:00:38.773Z,71.13
2023-02-04T16:03:05.728Z,72.13
2023-02-04T16:05:32.354Z,71.42
2023-02-04T16:07:58.982Z,71.99
2023-02-04T16:10:25.495Z,72.41
2023-02-04T16:12:55.010Z,71.85
2023-02-04T16:15:21.537Z,72.60
2023-02-04T16:17:48.437Z,73.28
2023-02-04T16:20:15.062Z,71.44
2023-02-04T16:22:41.565Z,74.65
2023-02-04T16:25:08.426Z,73.53
2023-02-04T16:27:35.349Z,73.85
2023-02-04T16:30:02.611Z,74.76
2023-02-04T16:35:08.401Z,75.03
2023-02-04T16:37:36.157Z,74.83
2023-02-04T16:40:02.767Z,75.68
2023-02-04T16:42:31.154Z,76.31
2023-02-04T16:44:58.035Z,74.88
2023-02-04T16:50:00.834Z,76.44
2023-02-04T16:52:29.218Z,77.41
2023-02-04T16:57:27.017Z,76.49
2023-02-04T16:59:53.620Z,75.12
2023-02-04T17:02:20.179Z,76.23
2023-02-04T17:04:46.772Z,76.60
2023-02-04T17:07:13.311Z,77.52
2023-02-04T17:12:17.175Z,78.84
2023-02-04T17:14:43.802Z,78.57
2023-02-04T17:17:10.321Z,78.85
2023-02-04T17:19:36.890Z,79.41
2023-02-04T17:22:03.474Z,79.80
2023-02-04T17:24:30.021Z,78.84
2023-02-04T17:26:56.601Z,79.39
2023-02-04T17:29:24.990Z,78.16
2023-02-04T17:31:52.973Z,77.50
2023-02-04T17:34:19.613Z,77.81
2023-02-04T17:36:46.322Z,76.67
2023-02-04T17:39:12.918Z,76.75
2023-02-04T17:44:20.194Z,78.29
2023-02-04T17:46:46.852Z,77.91
2023-02-04T17:49:13.498Z,75.88
2023-02-04T17:51:40.013Z,76.00
2023-02-04T17:54:06.531Z,76.40
2023-02-04T17:56:33.100Z,77.79
2023-02-04T17:58:59.622Z,78.40
2023-02-04T18:01:26.320Z,78.01
2023-02-04T18:03:53.226Z,79.05
2023-02-04T18:06:20.491Z,79.60
2023-02-04T18:08:48.046Z,79.35
2023-02-04T18:11:25.436Z,79.59
2023-02-04T18:13:55.579Z,79.20
2023-02-04T18:19:18.361Z,78.73
2023-02-04T18:21:46.713Z,79.27
2023-02-04T18:24:27.327Z,79.51
2023-02-04T18:26:56.477Z,79.76
2023-02-04T18:29:35.254Z,80.21
2023-02-04T18:32:06.383Z,79.98
2023-02-04T18:34:41.644Z,80.60
2023-02-04T18:37:37.022Z,79.79
2023-02-04T18:40:09.367Z,80.68
2023-02-04T18:42:41.228Z,80.19
2023-02-04T18:45:29.535Z,80.82
2023-02-04T18:48:01.805Z,81.18
2023-02-04T18:50:30.072Z,81.43
2023-02-04T18:53:26.897Z,81.73
2023-02-04T18:55:58.683Z,82.61
2023-02-04T18:58:41.769Z,83.30
2023-02-04T19:01:10.935Z,82.84
2023-02-04T19:03:45.316Z,84.08
2023-02-04T19:06:39.426Z,82.83
2023-02-04T19:09:26.054Z,84.11
2023-02-04T19:11:55.472Z,84.39
2023-02-04T19:14:35.873Z,84.62
2023-02-04T19:17:14.518Z,85.09
2023-02-04T19:20:00.029Z,85.37
2023-02-04T19:22:41.672Z,84.04
2023-02-04T19:28:33.702Z,84.15
2023-02-04T19:31:03.312Z,84.74
2023-02-04T19:33:40.172Z,85.36
2023-02-04T19:36:23.348Z,85.97
2023-02-04T19:39:00.716Z,85.67
2023-02-04T19:41:59.513Z,86.50
2023-02-04T19:44:42.109Z,86.66
2023-02-04T19:47:36.500Z,86.82
2023-02-04T19:50:03.190Z,86.94
2023-02-04T19:52:35.001Z,87.31
2023-02-04T19:55:16.675Z,87.91
2023-02-04T19:57:50.025Z,88.00
2023-02-04T20:00:28.995Z,87.81
2023-02-04T20:02:57.641Z,87.58
2023-02-04T20:05:26.738Z,87.70
2023-02-04T20:07:53.288Z,88.36
2023-02-04T20:10:28.237Z,87.46
2023-02-04T20:13:12.538Z,85.99
2023-02-04T20:15:39.191Z,85.19
2023-02-04T20:18:17.048Z,87.31
2023-02-04T20:20:45.438Z,87.91
2023-02-04T20:23:31.899Z,88.19
2023-02-04T20:26:00.653Z,87.90
2023-02-04T20:28:40.097Z,88.25
2023-02-04T20:31:22.681Z,88.05
2023-02-04T20:33:52.167Z,88.32
2023-02-04T20:36:33.382Z,85.84
2023-02-04T20:39:15.920Z,86.02
2023-02-04T20:41:43.041Z,86.63
2023-02-04T20:44:27.615Z,87.39
2023-02-04T20:47:11.583Z,88.64
2023-02-04T20:49:41.391Z,89.12
2023-02-04T20:52:39.678Z,90.07
2023-02-04T20:58:24.342Z,88.08
2023-02-04T21:00:53.957Z,88.24
2023-02-04T21:03:36.872Z,88.44
2023-02-04T21:06:21.075Z,88.42
2023-02-04T21:08:49.911Z,88.50
2023-02-04T21:11:16.559Z,90.05
2023-02-04T21:13:43.158Z,88.38
2023-02-04T21:16:10.127Z,89.48
2023-02-04T21:21:09.976Z,87.94
2023-02-04T21:23:37.058Z,87.96
2023-02-04T21:26:04.841Z,87.43
2023-02-04T21:28:32.502Z,87.29
2023-02-04T21:31:00.349Z,86.60
2023-02-04T21:35:58.250Z,86.07
2023-02-04T21:38:24.858Z,87.00
2023-02-04T21:40:51.491Z,87.10
2023-02-04T21:43:18.030Z,87.03
2023-02-04T21:45:44.818Z,86.73
2023-02-04T21:48:11.454Z,87.12
2023-02-04T21:50:38.716Z,87.14
2023-02-04T21:53:06.623Z,87.71
2023-02-04T21:55:34.435Z,87.90
2023-02-04T21:58:01.261Z,87.96
2023-02-04T22:00:27.836Z,88.21
2023-02-04T22:02:54.832Z,88.83
2023-02-04T22:05:22.391Z,89.56
2023-02-04T22:07:49.432Z,89.92
2023-02-04T22:10:23.086Z,90.00
2023-02-04T22:12:49.771Z,89.80
2023-02-04T22:15:24.318Z,89.92
2023-02-04T22:17:52.886Z,89.97
2023-02-04T22:20:20.809Z,88.01
2023-02-04T22:22:48.130Z,87.81
2023-02-04T22:25:16.871Z,89.32
2023-02-04T22:30:15.796Z,88.33
2023-02-04T22:32:42.980Z,88.12
2023-02-04T22:35:11.260Z,88.05
2023-02-04T22:37:38.965Z,88.22
2023-02-04T22:40:06.668Z,88.08
2023-02-04T22:42:33.535Z,89.13
2023-02-04T22:45:00.145Z,90.08
2023-02-04T22:47:26.652Z,89.55
2023-02-04T22:49:53.169Z,90.10
2023-02-04T22:52:19.808Z,90.22
2023-02-04T22:54:46.326Z,89.83
2023-02-04T22:57:12.897Z,89.97
2023-02-04T22:59:39.507Z,89.75
2023-02-04T23:02:06.093Z,89.95
2023-02-04T23:04:32.680Z,89.72
2023-02-04T23:07:00.861Z,89.76
2023-02-04T23:09:28.398Z,88.82
2023-02-04T23:11:56.847Z,88.97
2023-02-04T23:14:23.866Z,89.14
2023-02-04T23:16:51.363Z,89.36
2023-02-04T23:19:17.939Z,89.25
2023-02-04T23:21:44.508Z,89.59
2023-02-04T23:24:11.148Z,88.71
2023-02-04T23:26:37.656Z,89.27
2023-02-04T23:29:04.256Z,89.01
2023-02-04T23:31:30.831Z,89.31
2023-02-04T23:33:57.404Z,89.32
2023-02-04T23:36:23.998Z,89.58
2023-02-04T23:38:50.530Z,89.38
2023-02-04T23:41:17.123Z,89.34
2023-02-04T23:43:43.618Z,89.23
2023-02-04T23:46:10.521Z,88.93
2023-02-04T23:48:37.085Z,88.57
2023-02-04T23:51:03.746Z,89.44
2023-02-04T23:53:30.277Z,89.76
2023-02-04T23:55:56.797Z,89.78
2023-02-04T23:58:23.336Z,89.35
